sensor_id;sensor_type;location;lat;lon;timestamp;P1;durP1;ratioP1;P2;durP2;ratioP2
69954;SDS011;57279;55.912;37.490;2022-10-30T00:02:40;9.00;;;3.63;;
69954;SDS011;57279;55.912;37.490;2022-10-30T00:07:32;15.35;;;4.05;;
69954;SDS011;57279;55.912;37.490;2022-10-30T00:09:58;11.82;;;4.20;;
69954;SDS011;57279;55.912;37.490;2022-10-30T00:14:49;9.55;;;4.10;;
69954;SDS011;57279;55.912;37.490;2022-10-30T00:17:15;9.55;;;3.78;;
69954;SDS011;57279;55.912;37.490;2022-10-30T00:22:06;11.32;;;3.78;;
69954;SDS011;57279;55.912;37.490;2022-10-30T00:24:32;9.48;;;3.45;;
69954;SDS011;57279;55.912;37.490;2022-10-30T00:26:57;12.40;;;4.07;;
69954;SDS011;57279;55.912;37.490;2022-10-30T00:31:51;11.13;;;4.80;;
69954;SDS011;57279;55.912;37.490;2022-10-30T00:34:17;9.80;;;3.78;;
69954;SDS011;57279;55.912;37.490;2022-10-30T00:39:08;10.68;;;4.65;;
69954;SDS011;57279;55.912;37.490;2022-10-30T00:44:01;11.70;;;3.47;;
69954;SDS011;57279;55.912;37.490;2022-10-30T00:49:05;11.40;;;4.43;;
69954;SDS011;57279;55.912;37.490;2022-10-30T00:51:37;10.02;;;4.05;;
69954;SDS011;57279;55.912;37.490;2022-10-30T00:54:06;11.77;;;4.35;;
69954;SDS011;57279;55.912;37.490;2022-10-30T00:56:33;9.82;;;4.25;;
69954;SDS011;57279;55.912;37.490;2022-10-30T00:59:01;10.45;;;4.85;;
69954;SDS011;57279;55.912;37.490;2022-10-30T01:04:01;11.32;;;3.95;;
69954;SDS011;57279;55.912;37.490;2022-10-30T01:06:30;9.60;;;3.90;;
69954;SDS011;57279;55.912;37.490;2022-10-30T01:08:58;12.05;;;4.45;;
69954;SDS011;57279;55.912;37.490;2022-10-30T01:11:24;12.48;;;4.97;;
69954;SDS011;57279;55.912;37.490;2022-10-30T01:13:50;12.15;;;4.78;;
69954;SDS011;57279;55.912;37.490;2022-10-30T01:27:07;11.10;;;5.05;;
69954;SDS011;57279;55.912;37.490;2022-10-30T01:30:02;13.48;;;5.70;;
69954;SDS011;57279;55.912;37.490;2022-10-30T01:40:28;11.60;;;5.35;;
69954;SDS011;57279;55.912;37.490;2022-10-30T01:42:55;14.05;;;6.65;;
69954;SDS011;57279;55.912;37.490;2022-10-30T01:59:23;13.57;;;5.75;;
69954;SDS011;57279;55.912;37.490;2022-10-30T02:01:56;12.85;;;5.63;;
69954;SDS011;57279;55.912;37.490;2022-10-30T02:04:22;13.45;;;5.88;;
69954;SDS011;57279;55.912;37.490;2022-10-30T02:06:50;14.38;;;5.57;;
69954;SDS011;57279;55.912;37.490;2022-10-30T02:09:16;12.80;;;5.45;;
69954;SDS011;57279;55.912;37.490;2022-10-30T02:11:46;11.05;;;3.95;;
69954;SDS011;57279;55.912;37.490;2022-10-30T02:14:15;11.65;;;4.53;;
69954;SDS011;57279;55.912;37.490;2022-10-30T02:16:46;9.98;;;4.03;;
69954;SDS011;57279;55.912;37.490;2022-10-30T02:19:18;9.10;;;3.28;;
69954;SDS011;57279;55.912;37.490;2022-10-30T02:24:09;9.30;;;3.30;;
69954;SDS011;57279;55.912;37.490;2022-10-30T02:29:01;7.93;;;3.28;;
69954;SDS011;57279;55.912;37.490;2022-10-30T02:33:52;9.88;;;3.83;;
69954;SDS011;57279;55.912;37.490;2022-10-30T02:38:44;8.18;;;2.97;;
69954;SDS011;57279;55.912;37.490;2022-10-30T02:41:10;9.40;;;3.20;;
69954;SDS011;57279;55.912;37.490;2022-10-30T02:43:37;9.63;;;3.17;;
69954;SDS011;57279;55.912;37.490;2022-10-30T02:46:03;8.38;;;2.97;;
69954;SDS011;57279;55.912;37.490;2022-10-30T02:48:30;9.50;;;2.90;;
69954;SDS011;57279;55.912;37.490;2022-10-30T02:51:00;7.00;;;2.40;;
69954;SDS011;57279;55.912;37.490;2022-10-30T02:53:28;13.27;;;3.78;;
69954;SDS011;57279;55.912;37.490;2022-10-30T02:55:54;8.50;;;2.67;;
69954;SDS011;57279;55.912;37.490;2022-10-30T03:00:46;8.85;;;2.40;;
69954;SDS011;57279;55.912;37.490;2022-10-30T03:05:38;9.35;;;2.83;;
69954;SDS011;57279;55.912;37.490;2022-10-30T03:10:30;9.27;;;2.78;;
69954;SDS011;57279;55.912;37.490;2022-10-30T03:12:57;8.50;;;3.08;;
69954;SDS011;57279;55.912;37.490;2022-10-30T03:17:49;7.88;;;2.60;;
69954;SDS011;57279;55.912;37.490;2022-10-30T03:20:17;11.93;;;2.90;;
69954;SDS011;57279;55.912;37.490;2022-10-30T03:22:43;7.53;;;2.72;;
69954;SDS011;57279;55.912;37.490;2022-10-30T03:27:34;7.72;;;2.15;;
69954;SDS011;57279;55.912;37.490;2022-10-30T03:30:01;8.68;;;2.55;;
69954;SDS011;57279;55.912;37.490;2022-10-30T03:32:28;10.88;;;3.08;;
69954;SDS011;57279;55.912;37.490;2022-10-30T03:37:19;9.93;;;2.45;;
69954;SDS011;57279;55.912;37.490;2022-10-30T03:42:11;8.63;;;2.72;;
69954;SDS011;57279;55.912;37.490;2022-10-30T03:47:02;15.38;;;2.45;;
69954;SDS011;57279;55.912;37.490;2022-10-30T03:49:32;9.73;;;2.13;;
69954;SDS011;57279;55.912;37.490;2022-10-30T03:52:01;6.63;;;2.00;;
69954;SDS011;57279;55.912;37.490;2022-10-30T03:56:53;6.32;;;1.45;;
69954;SDS011;57279;55.912;37.490;2022-10-30T03:59:20;7.93;;;2.00;;
69954;SDS011;57279;55.912;37.490;2022-10-30T04:02:04;7.07;;;1.98;;
69954;SDS011;57279;55.912;37.490;2022-10-30T04:06:55;7.00;;;1.75;;
69954;SDS011;57279;55.912;37.490;2022-10-30T04:11:47;7.75;;;1.33;;
69954;SDS011;57279;55.912;37.490;2022-10-30T04:16:38;7.93;;;1.42;;
69954;SDS011;57279;55.912;37.490;2022-10-30T04:21:29;7.50;;;2.40;;
69954;SDS011;57279;55.912;37.490;2022-10-30T04:23:56;10.35;;;2.17;;
69954;SDS011;57279;55.912;37.490;2022-10-30T04:26:25;8.27;;;2.33;;
69954;SDS011;57279;55.912;37.490;2022-10-30T04:31:16;8.52;;;2.25;;
69954;SDS011;57279;55.912;37.490;2022-10-30T04:33:42;9.65;;;2.28;;
69954;SDS011;57279;55.912;37.490;2022-10-30T04:36:08;8.05;;;2.22;;
69954;SDS011;57279;55.912;37.490;2022-10-30T04:41:00;7.90;;;2.45;;
69954;SDS011;57279;55.912;37.490;2022-10-30T04:43:41;10.48;;;1.90;;
69954;SDS011;57279;55.912;37.490;2022-10-30T04:48:32;10.00;;;1.90;;
69954;SDS011;57279;55.912;37.490;2022-10-30T04:50:59;8.25;;;2.45;;
69954;SDS011;57279;55.912;37.490;2022-10-30T04:58:22;9.00;;;1.90;;
69954;SDS011;57279;55.912;37.490;2022-10-30T05:00:59;9.82;;;1.85;;
69954;SDS011;57279;55.912;37.490;2022-10-30T05:03:27;7.32;;;1.83;;
69954;SDS011;57279;55.912;37.490;2022-10-30T05:05:54;7.03;;;1.42;;
69954;SDS011;57279;55.912;37.490;2022-10-30T05:08:22;8.10;;;1.23;;
69954;SDS011;57279;55.912;37.490;2022-10-30T05:13:13;7.40;;;2.25;;
69954;SDS011;57279;55.912;37.490;2022-10-30T05:15:41;5.18;;;1.15;;
69954;SDS011;57279;55.912;37.490;2022-10-30T05:18:07;10.57;;;1.88;;
69954;SDS011;57279;55.912;37.490;2022-10-30T05:22:58;11.32;;;1.98;;
69954;SDS011;57279;55.912;37.490;2022-10-30T05:25:25;8.52;;;1.92;;
69954;SDS011;57279;55.912;37.490;2022-10-30T05:27:57;6.03;;;1.40;;
69954;SDS011;57279;55.912;37.490;2022-10-30T05:30:25;7.03;;;1.35;;
69954;SDS011;57279;55.912;37.490;2022-10-30T05:32:56;7.15;;;1.25;;
69954;SDS011;57279;55.912;37.490;2022-10-30T05:35:26;8.50;;;1.90;;
69954;SDS011;57279;55.912;37.490;2022-10-30T05:37:53;5.72;;;1.40;;
69954;SDS011;57279;55.912;37.490;2022-10-30T05:42:45;4.90;;;1.00;;
69954;SDS011;57279;55.912;37.490;2022-10-30T05:45:11;6.97;;;1.00;;
69954;SDS011;57279;55.912;37.490;2022-10-30T05:47:37;4.63;;;0.70;;
69954;SDS011;57279;55.912;37.490;2022-10-30T05:52:29;6.63;;;1.42;;
69954;SDS011;57279;55.912;37.490;2022-10-30T05:54:57;6.18;;;0.82;;
69954;SDS011;57279;55.912;37.490;2022-10-30T05:57:30;5.50;;;0.70;;
69954;SDS011;57279;55.912;37.490;2022-10-30T05:59:57;2.47;;;0.30;;
69954;SDS011;57279;55.912;37.490;2022-10-30T06:02:23;4.05;;;0.70;;
69954;SDS011;57279;55.912;37.490;2022-10-30T06:04:50;2.95;;;0.50;;
69954;SDS011;57279;55.912;37.490;2022-10-30T06:07:16;2.47;;;0.60;;
69954;SDS011;57279;55.912;37.490;2022-10-30T06:09:42;9.40;;;0.70;;
69954;SDS011;57279;55.912;37.490;2022-10-30T06:12:38;4.60;;;0.68;;
69954;SDS011;57279;55.912;37.490;2022-10-30T06:15:22;4.07;;;0.82;;
69954;SDS011;57279;55.912;37.490;2022-10-30T06:17:48;3.35;;;0.63;;
69954;SDS011;57279;55.912;37.490;2022-10-30T06:20:23;2.85;;;0.50;;
69954;SDS011;57279;55.912;37.490;2022-10-30T06:23:12;4.22;;;0.75;;
69954;SDS011;57279;55.912;37.490;2022-10-30T06:25:46;4.15;;;0.70;;
69954;SDS011;57279;55.912;37.490;2022-10-30T06:28:19;3.97;;;0.65;;
69954;SDS011;57279;55.912;37.490;2022-10-30T06:33:10;3.78;;;0.70;;
69954;SDS011;57279;55.912;37.490;2022-10-30T06:35:39;3.10;;;0.52;;
69954;SDS011;57279;55.912;37.490;2022-10-30T06:38:05;2.90;;;0.52;;
69954;SDS011;57279;55.912;37.490;2022-10-30T06:40:34;4.88;;;0.88;;
69954;SDS011;57279;55.912;37.490;2022-10-30T06:43:20;3.60;;;1.10;;
69954;SDS011;57279;55.912;37.490;2022-10-30T06:45:52;6.25;;;0.40;;
69954;SDS011;57279;55.912;37.490;2022-10-30T06:48:18;3.03;;;0.60;;
69954;SDS011;57279;55.912;37.490;2022-10-30T06:50:55;4.57;;;0.60;;
69954;SDS011;57279;55.912;37.490;2022-10-30T06:53:23;2.00;;;0.40;;
69954;SDS011;57279;55.912;37.490;2022-10-30T06:55:54;3.55;;;0.50;;
69954;SDS011;57279;55.912;37.490;2022-10-30T06:58:37;3.45;;;0.70;;
69954;SDS011;57279;55.912;37.490;2022-10-30T07:01:07;2.78;;;0.40;;
69954;SDS011;57279;55.912;37.490;2022-10-30T07:03:51;5.38;;;0.50;;
69954;SDS011;57279;55.912;37.490;2022-10-30T07:06:17;2.33;;;0.45;;
69954;SDS011;57279;55.912;37.490;2022-10-30T07:11:11;5.15;;;1.00;;
69954;SDS011;57279;55.912;37.490;2022-10-30T07:13:58;3.78;;;0.60;;
69954;SDS011;57279;55.912;37.490;2022-10-30T07:16:32;3.25;;;0.68;;
69954;SDS011;57279;55.912;37.490;2022-10-30T07:18:59;3.65;;;0.65;;
69954;SDS011;57279;55.912;37.490;2022-10-30T07:21:25;3.75;;;0.60;;
69954;SDS011;57279;55.912;37.490;2022-10-30T07:23:51;2.90;;;0.75;;
69954;SDS011;57279;55.912;37.490;2022-10-30T07:26:32;8.43;;;0.93;;
69954;SDS011;57279;55.912;37.490;2022-10-30T07:29:07;3.15;;;0.63;;
69954;SDS011;57279;55.912;37.490;2022-10-30T07:31:44;4.03;;;0.70;;
69954;SDS011;57279;55.912;37.490;2022-10-30T07:34:42;4.88;;;0.73;;
69954;SDS011;57279;55.912;37.490;2022-10-30T07:37:40;3.33;;;0.70;;
69954;SDS011;57279;55.912;37.490;2022-10-30T07:40:09;3.85;;;0.52;;
69954;SDS011;57279;55.912;37.490;2022-10-30T07:42:57;1.85;;;0.55;;
69954;SDS011;57279;55.912;37.490;2022-10-30T07:45:38;2.53;;;0.40;;
69954;SDS011;57279;55.912;37.490;2022-10-30T07:48:22;10.63;;;0.93;;
69954;SDS011;57279;55.912;37.490;2022-10-30T07:51:14;2.97;;;0.77;;
69954;SDS011;57279;55.912;37.490;2022-10-30T07:56:07;5.43;;;1.20;;
69954;SDS011;57279;55.912;37.490;2022-10-30T07:58:51;2.47;;;0.60;;
69954;SDS011;57279;55.912;37.490;2022-10-30T08:01:29;3.33;;;0.75;;
69954;SDS011;57279;55.912;37.490;2022-10-30T08:04:00;4.47;;;0.93;;
69954;SDS011;57279;55.912;37.490;2022-10-30T08:06:27;3.38;;;1.17;;
69954;SDS011;57279;55.912;37.490;2022-10-30T08:08:53;4.68;;;1.40;;
69954;SDS011;57279;55.912;37.490;2022-10-30T08:11:25;3.92;;;0.77;;
69954;SDS011;57279;55.912;37.490;2022-10-30T08:13:52;4.80;;;0.90;;
69954;SDS011;57279;55.912;37.490;2022-10-30T08:16:17;4.55;;;0.93;;
69954;SDS011;57279;55.912;37.490;2022-10-30T08:18:43;3.70;;;0.70;;
69954;SDS011;57279;55.912;37.490;2022-10-30T08:21:09;4.72;;;1.13;;
69954;SDS011;57279;55.912;37.490;2022-10-30T08:23:40;5.68;;;1.15;;
69954;SDS011;57279;55.912;37.490;2022-10-30T08:26:11;6.47;;;1.33;;
69954;SDS011;57279;55.912;37.490;2022-10-30T08:28:37;5.82;;;1.35;;
69954;SDS011;57279;55.912;37.490;2022-10-30T08:31:06;6.38;;;1.70;;
69954;SDS011;57279;55.912;37.490;2022-10-30T08:33:52;6.53;;;1.70;;
69954;SDS011;57279;55.912;37.490;2022-10-30T08:36:32;5.22;;;1.60;;
69954;SDS011;57279;55.912;37.490;2022-10-30T08:38:58;6.75;;;2.10;;
69954;SDS011;57279;55.912;37.490;2022-10-30T08:41:43;9.60;;;1.98;;
69954;SDS011;57279;55.912;37.490;2022-10-30T08:44:10;10.10;;;1.27;;
69954;SDS011;57279;55.912;37.490;2022-10-30T08:47:05;4.68;;;0.98;;
69954;SDS011;57279;55.912;37.490;2022-10-30T08:49:31;4.65;;;0.80;;
69954;SDS011;57279;55.912;37.490;2022-10-30T08:51:58;5.88;;;1.25;;
69954;SDS011;57279;55.912;37.490;2022-10-30T08:54:24;4.03;;;0.82;;
69954;SDS011;57279;55.912;37.490;2022-10-30T08:56:50;5.90;;;1.05;;
69954;SDS011;57279;55.912;37.490;2022-10-30T08:59:16;4.60;;;0.88;;
69954;SDS011;57279;55.912;37.490;2022-10-30T09:01:41;3.90;;;0.75;;
69954;SDS011;57279;55.912;37.490;2022-10-30T09:04:19;6.03;;;1.20;;
69954;SDS011;57279;55.912;37.490;2022-10-30T09:07:05;5.97;;;0.93;;
69954;SDS011;57279;55.912;37.490;2022-10-30T09:10:03;4.70;;;1.10;;
69954;SDS011;57279;55.912;37.490;2022-10-30T09:12:32;5.40;;;1.10;;
69954;SDS011;57279;55.912;37.490;2022-10-30T09:14:58;5.05;;;0.70;;
69954;SDS011;57279;55.912;37.490;2022-10-30T09:19:50;3.72;;;0.75;;
69954;SDS011;57279;55.912;37.490;2022-10-30T09:22:23;5.35;;;1.02;;
69954;SDS011;57279;55.912;37.490;2022-10-30T09:24:49;5.13;;;0.70;;
69954;SDS011;57279;55.912;37.490;2022-10-30T09:27:38;7.80;;;1.00;;
69954;SDS011;57279;55.912;37.490;2022-10-30T09:30:05;6.50;;;1.30;;
69954;SDS011;57279;55.912;37.490;2022-10-30T09:32:35;3.42;;;0.90;;
69954;SDS011;57279;55.912;37.490;2022-10-30T09:35:07;5.88;;;1.17;;
69954;SDS011;57279;55.912;37.490;2022-10-30T09:37:36;4.65;;;0.95;;
69954;SDS011;57279;55.912;37.490;2022-10-30T09:40:06;6.20;;;0.70;;
69954;SDS011;57279;55.912;37.490;2022-10-30T09:56:11;3.65;;;0.75;;
69954;SDS011;57279;55.912;37.490;2022-10-30T10:01:51;4.18;;;0.90;;
69954;SDS011;57279;55.912;37.490;2022-10-30T10:04:30;5.28;;;0.85;;
69954;SDS011;57279;55.912;37.490;2022-10-30T10:07:24;5.95;;;1.05;;
69954;SDS011;57279;55.912;37.490;2022-10-30T10:12:56;3.63;;;0.73;;
69954;SDS011;57279;55.912;37.490;2022-10-30T10:18:24;3.75;;;0.70;;
69954;SDS011;57279;55.912;37.490;2022-10-30T10:20:55;5.63;;;1.50;;
69954;SDS011;57279;55.912;37.490;2022-10-30T10:26:28;2.35;;;0.40;;
69954;SDS011;57279;55.912;37.490;2022-10-30T10:34:44;5.70;;;0.98;;
69954;SDS011;57279;55.912;37.490;2022-10-30T10:39:53;5.78;;;0.80;;
69954;SDS011;57279;55.912;37.490;2022-10-30T10:50:47;4.55;;;0.77;;
69954;SDS011;57279;55.912;37.490;2022-10-30T10:53:21;5.18;;;1.27;;
69954;SDS011;57279;55.912;37.490;2022-10-30T10:55:55;4.07;;;0.75;;
69954;SDS011;57279;55.912;37.490;2022-10-30T10:58:26;3.80;;;0.63;;
69954;SDS011;57279;55.912;37.490;2022-10-30T11:00:56;4.40;;;0.65;;
69954;SDS011;57279;55.912;37.490;2022-10-30T11:06:35;3.55;;;0.68;;
69954;SDS011;57279;55.912;37.490;2022-10-30T11:09:18;2.90;;;0.60;;
69954;SDS011;57279;55.912;37.490;2022-10-30T11:11:46;5.68;;;0.80;;
69954;SDS011;57279;55.912;37.490;2022-10-30T11:14:22;7.20;;;0.77;;
69954;SDS011;57279;55.912;37.490;2022-10-30T11:19:37;3.50;;;0.90;;
69954;SDS011;57279;55.912;37.490;2022-10-30T11:22:03;3.63;;;0.70;;
69954;SDS011;57279;55.912;37.490;2022-10-30T11:29:50;4.82;;;0.90;;
69954;SDS011;57279;55.912;37.490;2022-10-30T11:32:31;4.53;;;1.05;;
69954;SDS011;57279;55.912;37.490;2022-10-30T11:37:38;4.47;;;0.98;;
69954;SDS011;57279;55.912;37.490;2022-10-30T11:42:37;4.05;;;0.82;;
69954;SDS011;57279;55.912;37.490;2022-10-30T11:45:07;4.82;;;0.85;;
69954;SDS011;57279;55.912;37.490;2022-10-30T11:47:40;4.75;;;1.08;;
69954;SDS011;57279;55.912;37.490;2022-10-30T11:52:40;3.53;;;0.45;;
69954;SDS011;57279;55.912;37.490;2022-10-30T11:55:13;5.85;;;1.35;;
69954;SDS011;57279;55.912;37.490;2022-10-30T11:57:50;3.88;;;0.80;;
69954;SDS011;57279;55.912;37.490;2022-10-30T12:02:49;3.60;;;0.68;;
69954;SDS011;57279;55.912;37.490;2022-10-30T12:07:50;4.32;;;0.90;;
69954;SDS011;57279;55.912;37.490;2022-10-30T12:10:27;4.35;;;0.95;;
69954;SDS011;57279;55.912;37.490;2022-10-30T12:12:54;5.22;;;0.95;;
69954;SDS011;57279;55.912;37.490;2022-10-30T12:15:22;4.30;;;1.15;;
69954;SDS011;57279;55.912;37.490;2022-10-30T12:18:00;3.78;;;0.80;;
69954;SDS011;57279;55.912;37.490;2022-10-30T12:20:28;5.30;;;0.82;;
69954;SDS011;57279;55.912;37.490;2022-10-30T12:22:54;4.97;;;0.90;;
69954;SDS011;57279;55.912;37.490;2022-10-30T12:25:27;4.35;;;0.98;;
69954;SDS011;57279;55.912;37.490;2022-10-30T12:30:33;5.43;;;0.85;;
69954;SDS011;57279;55.912;37.490;2022-10-30T12:33:16;3.58;;;0.68;;
69954;SDS011;57279;55.912;37.490;2022-10-30T12:35:57;3.75;;;0.90;;
69954;SDS011;57279;55.912;37.490;2022-10-30T12:43:58;6.43;;;0.60;;
69954;SDS011;57279;55.912;37.490;2022-10-30T12:46:31;1.90;;;0.50;;
69954;SDS011;57279;55.912;37.490;2022-10-30T12:57:25;2.88;;;0.60;;
69954;SDS011;57279;55.912;37.490;2022-10-30T13:10:30;5.93;;;1.20;;
69954;SDS011;57279;55.912;37.490;2022-10-30T13:13:00;7.20;;;1.67;;
69954;SDS011;57279;55.912;37.490;2022-10-30T13:15:37;4.97;;;0.80;;
69954;SDS011;57279;55.912;37.490;2022-10-30T13:18:19;3.35;;;0.70;;
69954;SDS011;57279;55.912;37.490;2022-10-30T13:20:55;5.75;;;0.68;;
69954;SDS011;57279;55.912;37.490;2022-10-30T13:26:31;2.83;;;0.60;;
69954;SDS011;57279;55.912;37.490;2022-10-30T13:50:52;11.95;;;3.05;;
69954;SDS011;57279;55.912;37.490;2022-10-30T13:53:53;7.55;;;1.73;;
69954;SDS011;57279;55.912;37.490;2022-10-30T13:56:44;7.47;;;1.25;;
69954;SDS011;57279;55.912;37.490;2022-10-30T14:01:51;6.72;;;2.03;;
69954;SDS011;57279;55.912;37.490;2022-10-30T14:04:37;10.68;;;3.33;;
69954;SDS011;57279;55.912;37.490;2022-10-30T14:07:16;6.07;;;1.80;;
69954;SDS011;57279;55.912;37.490;2022-10-30T14:15:18;4.35;;;1.08;;
69954;SDS011;57279;55.912;37.490;2022-10-30T14:23:36;4.88;;;1.17;;
69954;SDS011;57279;55.912;37.490;2022-10-30T14:28:28;6.75;;;1.00;;
69954;SDS011;57279;55.912;37.490;2022-10-30T14:33:47;5.43;;;1.00;;
69954;SDS011;57279;55.912;37.490;2022-10-30T14:38:42;4.50;;;0.88;;
69954;SDS011;57279;55.912;37.490;2022-10-30T14:44:33;4.40;;;0.80;;
69954;SDS011;57279;55.912;37.490;2022-10-30T14:49:53;5.50;;;1.10;;
69954;SDS011;57279;55.912;37.490;2022-10-30T14:52:31;6.50;;;1.25;;
69954;SDS011;57279;55.912;37.490;2022-10-30T14:55:21;6.25;;;1.40;;
69954;SDS011;57279;55.912;37.490;2022-10-30T14:58:14;8.07;;;1.65;;
69954;SDS011;57279;55.912;37.490;2022-10-30T15:00:42;6.28;;;1.42;;
69954;SDS011;57279;55.912;37.490;2022-10-30T15:05:52;7.30;;;1.75;;
69954;SDS011;57279;55.912;37.490;2022-10-30T15:11:10;5.93;;;1.50;;
69954;SDS011;57279;55.912;37.490;2022-10-30T15:13:58;9.65;;;1.85;;
69954;SDS011;57279;55.912;37.490;2022-10-30T15:16:29;4.70;;;1.00;;
69954;SDS011;57279;55.912;37.490;2022-10-30T15:19:00;6.63;;;1.35;;
69954;SDS011;57279;55.912;37.490;2022-10-30T15:21:30;4.68;;;1.13;;
69954;SDS011;57279;55.912;37.490;2022-10-30T15:23:59;4.00;;;0.82;;
69954;SDS011;57279;55.912;37.490;2022-10-30T15:27:10;5.07;;;1.35;;
69954;SDS011;57279;55.912;37.490;2022-10-30T15:29:18;7.82;;;1.40;;
69954;SDS011;57279;55.912;37.490;2022-10-30T15:32:02;5.75;;;1.00;;
69954;SDS011;57279;55.912;37.490;2022-10-30T15:34:39;4.20;;;0.90;;
69954;SDS011;57279;55.912;37.490;2022-10-30T15:37:10;4.65;;;0.85;;
69954;SDS011;57279;55.912;37.490;2022-10-30T15:39:37;5.28;;;1.05;;
69954;SDS011;57279;55.912;37.490;2022-10-30T15:42:02;4.47;;;1.13;;
69954;SDS011;57279;55.912;37.490;2022-10-30T15:44:29;3.95;;;0.90;;
69954;SDS011;57279;55.912;37.490;2022-10-30T15:46:58;4.57;;;0.90;;
69954;SDS011;57279;55.912;37.490;2022-10-30T15:49:31;6.55;;;1.67;;
69954;SDS011;57279;55.912;37.490;2022-10-30T15:52:04;4.85;;;0.85;;
69954;SDS011;57279;55.912;37.490;2022-10-30T15:54:40;4.72;;;0.85;;
69954;SDS011;57279;55.912;37.490;2022-10-30T15:57:15;5.13;;;1.13;;
69954;SDS011;57279;55.912;37.490;2022-10-30T15:59:50;5.60;;;1.08;;
69954;SDS011;57279;55.912;37.490;2022-10-30T16:02:21;5.28;;;0.85;;
69954;SDS011;57279;55.912;37.490;2022-10-30T16:04:48;4.72;;;1.17;;
69954;SDS011;57279;55.912;37.490;2022-10-30T16:09:51;5.93;;;1.08;;
69954;SDS011;57279;55.912;37.490;2022-10-30T16:12:17;4.40;;;0.90;;
69954;SDS011;57279;55.912;37.490;2022-10-30T16:14:43;7.78;;;1.58;;
69954;SDS011;57279;55.912;37.490;2022-10-30T16:17:09;4.70;;;1.10;;
69954;SDS011;57279;55.912;37.490;2022-10-30T16:19:39;14.00;;;1.55;;
69954;SDS011;57279;55.912;37.490;2022-10-30T16:22:18;4.97;;;0.90;;
69954;SDS011;57279;55.912;37.490;2022-10-30T16:24:49;7.43;;;1.48;;
69954;SDS011;57279;55.912;37.490;2022-10-30T16:27:16;5.35;;;1.20;;
69954;SDS011;57279;55.912;37.490;2022-10-30T16:29:46;4.63;;;1.05;;
69954;SDS011;57279;55.912;37.490;2022-10-30T16:32:15;4.20;;;0.88;;
69954;SDS011;57279;55.912;37.490;2022-10-30T16:34:44;5.20;;;1.25;;
69954;SDS011;57279;55.912;37.490;2022-10-30T16:37:16;7.05;;;1.10;;
69954;SDS011;57279;55.912;37.490;2022-10-30T16:39:44;5.40;;;0.93;;
69954;SDS011;57279;55.912;37.490;2022-10-30T16:42:23;9.38;;;1.58;;
69954;SDS011;57279;55.912;37.490;2022-10-30T16:44:52;4.43;;;1.00;;
69954;SDS011;57279;55.912;37.490;2022-10-30T16:48:19;7.28;;;1.17;;
69954;SDS011;57279;55.912;37.490;2022-10-30T16:50:39;9.18;;;1.98;;
69954;SDS011;57279;55.912;37.490;2022-10-30T16:53:14;6.38;;;1.80;;
69954;SDS011;57279;55.912;37.490;2022-10-30T16:55:50;6.90;;;1.45;;
69954;SDS011;57279;55.912;37.490;2022-10-30T16:58:21;5.88;;;1.40;;
69954;SDS011;57279;55.912;37.490;2022-10-30T17:00:53;5.25;;;1.10;;
69954;SDS011;57279;55.912;37.490;2022-10-30T17:03:25;5.95;;;1.58;;
69954;SDS011;57279;55.912;37.490;2022-10-30T17:05:56;7.18;;;1.30;;
69954;SDS011;57279;55.912;37.490;2022-10-30T17:08:34;6.22;;;1.30;;
69954;SDS011;57279;55.912;37.490;2022-10-30T17:11:05;4.65;;;0.93;;
69954;SDS011;57279;55.912;37.490;2022-10-30T17:13:41;6.78;;;1.10;;
69954;SDS011;57279;55.912;37.490;2022-10-30T17:16:23;5.05;;;1.00;;
69954;SDS011;57279;55.912;37.490;2022-10-30T17:18:49;4.50;;;0.70;;
69954;SDS011;57279;55.912;37.490;2022-10-30T17:21:17;7.95;;;1.08;;
69954;SDS011;57279;55.912;37.490;2022-10-30T17:23:49;5.55;;;1.30;;
69954;SDS011;57279;55.912;37.490;2022-10-30T17:26:17;5.93;;;1.50;;
69954;SDS011;57279;55.912;37.490;2022-10-30T17:28:43;5.80;;;0.98;;
69954;SDS011;57279;55.912;37.490;2022-10-30T17:34:13;4.47;;;0.70;;
69954;SDS011;57279;55.912;37.490;2022-10-30T17:36:39;5.07;;;1.35;;
69954;SDS011;57279;55.912;37.490;2022-10-30T17:39:05;3.35;;;0.70;;
69954;SDS011;57279;55.912;37.490;2022-10-30T17:41:31;5.10;;;0.93;;
69954;SDS011;57279;55.912;37.490;2022-10-30T17:43:57;4.10;;;0.73;;
69954;SDS011;57279;55.912;37.490;2022-10-30T17:46:23;5.13;;;1.08;;
69954;SDS011;57279;55.912;37.490;2022-10-30T17:48:49;4.28;;;1.23;;
69954;SDS011;57279;55.912;37.490;2022-10-30T17:51:15;4.65;;;0.85;;
69954;SDS011;57279;55.912;37.490;2022-10-30T17:53:42;5.28;;;0.88;;
69954;SDS011;57279;55.912;37.490;2022-10-30T17:58:40;3.78;;;0.45;;
69954;SDS011;57279;55.912;37.490;2022-10-30T18:01:05;4.85;;;1.02;;
69954;SDS011;57279;55.912;37.490;2022-10-30T18:03:31;5.03;;;1.02;;
69954;SDS011;57279;55.912;37.490;2022-10-30T18:05:58;3.75;;;1.17;;
69954;SDS011;57279;55.912;37.490;2022-10-30T18:08:26;4.57;;;0.80;;
69954;SDS011;57279;55.912;37.490;2022-10-30T18:10:52;5.75;;;1.27;;
69954;SDS011;57279;55.912;37.490;2022-10-30T18:13:18;3.28;;;0.70;;
69954;SDS011;57279;55.912;37.490;2022-10-30T18:15:46;5.35;;;0.82;;
69954;SDS011;57279;55.912;37.490;2022-10-30T18:18:17;5.40;;;0.88;;
69954;SDS011;57279;55.912;37.490;2022-10-30T18:20:43;4.00;;;1.25;;
69954;SDS011;57279;55.912;37.490;2022-10-30T18:23:16;3.72;;;0.52;;
69954;SDS011;57279;55.912;37.490;2022-10-30T18:25:44;3.30;;;0.65;;
69954;SDS011;57279;55.912;37.490;2022-10-30T18:28:10;3.72;;;0.60;;
69954;SDS011;57279;55.912;37.490;2022-10-30T18:30:36;5.28;;;0.80;;
69954;SDS011;57279;55.912;37.490;2022-10-30T18:33:01;5.38;;;0.85;;
69954;SDS011;57279;55.912;37.490;2022-10-30T18:37:57;1.85;;;0.30;;
69954;SDS011;57279;55.912;37.490;2022-10-30T18:40:23;3.70;;;0.70;;
69954;SDS011;57279;55.912;37.490;2022-10-30T18:42:50;4.28;;;0.80;;
69954;SDS011;57279;55.912;37.490;2022-10-30T18:45:21;4.88;;;0.70;;
69954;SDS011;57279;55.912;37.490;2022-10-30T18:47:51;3.90;;;0.70;;
69954;SDS011;57279;55.912;37.490;2022-10-30T18:50:18;5.20;;;0.77;;
69954;SDS011;57279;55.912;37.490;2022-10-30T18:52:44;3.08;;;0.60;;
69954;SDS011;57279;55.912;37.490;2022-10-30T18:55:12;2.83;;;0.57;;
69954;SDS011;57279;55.912;37.490;2022-10-30T18:57:50;4.72;;;0.43;;
69954;SDS011;57279;55.912;37.490;2022-10-30T19:00:21;3.60;;;0.77;;
69954;SDS011;57279;55.912;37.490;2022-10-30T19:02:53;3.70;;;0.80;;
69954;SDS011;57279;55.912;37.490;2022-10-30T19:07:55;5.30;;;1.10;;
69954;SDS011;57279;55.912;37.490;2022-10-30T19:10:22;4.22;;;0.60;;
69954;SDS011;57279;55.912;37.490;2022-10-30T19:12:54;3.53;;;0.80;;
69954;SDS011;57279;55.912;37.490;2022-10-30T19:15:26;5.32;;;0.82;;
69954;SDS011;57279;55.912;37.490;2022-10-30T19:17:56;6.25;;;0.93;;
69954;SDS011;57279;55.912;37.490;2022-10-30T19:20:22;5.80;;;0.77;;
69954;SDS011;57279;55.912;37.490;2022-10-30T19:22:47;4.68;;;0.65;;
69954;SDS011;57279;55.912;37.490;2022-10-30T19:27:49;3.30;;;0.43;;
69954;SDS011;57279;55.912;37.490;2022-10-30T19:30:16;4.95;;;0.90;;
69954;SDS011;57279;55.912;37.490;2022-10-30T19:32:43;4.57;;;0.85;;
69954;SDS011;57279;55.912;37.490;2022-10-30T19:37:35;3.92;;;0.60;;
69954;SDS011;57279;55.912;37.490;2022-10-30T19:40:35;3.72;;;0.80;;
69954;SDS011;57279;55.912;37.490;2022-10-30T19:42:58;3.95;;;0.90;;
69954;SDS011;57279;55.912;37.490;2022-10-30T19:45:25;2.63;;;0.63;;
69954;SDS011;57279;55.912;37.490;2022-10-30T19:47:53;4.63;;;0.70;;
69954;SDS011;57279;55.912;37.490;2022-10-30T19:52:47;3.60;;;0.68;;
69954;SDS011;57279;55.912;37.490;2022-10-30T19:55:14;5.25;;;1.00;;